sensor_id;sensor_type;location;lat;lon;timestamp;pressure;altitude;pressure_sealevel;temperature;humidity
1726;BME280;41776;48.260;8.928;2022-08-03T00:00:48;71046.22;;;-145.69;100.00
1726;BME280;41776;48.260;8.928;2022-08-03T00:03:15;71044.22;;;-145.69;100.00
1726;BME280;41776;48.260;8.928;2022-08-03T00:05:41;71058.16;;;-145.69;100.00
1726;BME280;41776;48.260;8.928;2022-08-03T00:08:08;71070.09;;;-145.69;100.00
1726;BME280;41776;48.260;8.928;2022-08-03T00:10:35;71072.09;;;-145.69;100.00
1726;BME280;41776;48.260;8.928;2022-08-03T00:13:02;71072.09;;;-145.69;100.00
1726;BME280;41776;48.260;8.928;2022-08-03T00:15:29;71068.13;;;-145.69;100.00
1726;BME280;41776;48.260;8.928;2022-08-03T00:17:55;71060.16;;;-145.69;100.00
1726;BME280;41776;48.260;8.928;2022-08-03T00:20:22;71060.16;;;-145.69;100.00
1726;BME280;41776;48.260;8.928;2022-08-03T00:22:48;71064.13;;;-145.69;100.00
1726;BME280;41776;48.260;8.928;2022-08-03T00:25:15;71062.13;;;-145.69;100.00
1726;BME280;41776;48.260;8.928;2022-08-03T00:27:43;71064.13;;;-145.69;100.00
1726;BME280;41776;48.260;8.928;2022-08-03T00:30:10;71068.13;;;-145.69;100.00
1726;BME280;41776;48.260;8.928;2022-08-03T00:32:36;71064.13;;;-145.69;100.00
1726;BME280;41776;48.260;8.928;2022-08-03T00:35:04;71060.16;;;-145.69;100.00
1726;BME280;41776;48.260;8.928;2022-08-03T00:37:30;71068.13;;;-145.69;100.00
1726;BME280;41776;48.260;8.928;2022-08-03T00:39:57;71064.13;;;-145.69;100.00
1726;BME280;41776;48.260;8.928;2022-08-03T00:42:23;71062.13;;;-145.69;100.00
1726;BME280;41776;48.260;8.928;2022-08-03T00:44:51;71052.19;;;-145.69;100.00
1726;BME280;41776;48.260;8.928;2022-08-03T00:47:17;71052.19;;;-145.69;100.00
1726;BME280;41776;48.260;8.928;2022-08-03T00:49:44;71038.25;;;-145.69;100.00
1726;BME280;41776;48.260;8.928;2022-08-03T00:52:12;71040.25;;;-145.69;100.00
1726;BME280;41776;48.260;8.928;2022-08-03T00:54:39;71036.28;;;-145.69;100.00
1726;BME280;41776;48.260;8.928;2022-08-03T00:57:06;71038.25;;;-145.69;100.00
1726;BME280;41776;48.260;8.928;2022-08-03T00:59:32;71044.22;;;-145.69;100.00
1726;BME280;41776;48.260;8.928;2022-08-03T01:02:01;71044.22;;;-145.69;100.00
1726;BME280;41776;48.260;8.928;2022-08-03T01:04:27;71046.22;;;-145.69;100.00
1726;BME280;41776;48.260;8.928;2022-08-03T01:07:00;71056.16;;;-145.69;100.00
1726;BME280;41776;48.260;8.928;2022-08-03T01:09:36;71064.13;;;-145.69;100.00
1726;BME280;41776;48.260;8.928;2022-08-03T01:12:09;71064.13;;;-145.69;100.00
1726;BME280;41776;48.260;8.928;2022-08-03T01:14:43;71068.13;;;-145.69;100.00
1726;BME280;41776;48.260;8.928;2022-08-03T01:17:18;71072.09;;;-145.69;100.00
1726;BME280;41776;48.260;8.928;2022-08-03T01:19:52;71076.06;;;-145.69;100.00
1726;BME280;41776;48.260;8.928;2022-08-03T01:22:43;71068.13;;;-145.69;100.00
1726;BME280;41776;48.260;8.928;2022-08-03T01:25:18;71056.16;;;-145.69;100.00
1726;BME280;41776;48.260;8.928;2022-08-03T01:27:54;71056.16;;;-145.69;100.00
1726;BME280;41776;48.260;8.928;2022-08-03T01:30:26;71054.19;;;-145.69;100.00
1726;BME280;41776;48.260;8.928;2022-08-03T01:32:59;71060.16;;;-145.69;100.00
1726;BME280;41776;48.260;8.928;2022-08-03T01:35:31;71068.13;;;-145.69;100.00
1726;BME280;41776;48.260;8.928;2022-08-03T01:38:01;71068.13;;;-145.69;100.00
1726;BME280;41776;48.260;8.928;2022-08-03T01:40:30;71066.13;;;-145.69;100.00
1726;BME280;41776;48.260;8.928;2022-08-03T01:42:59;71066.13;;;-145.69;100.00
1726;BME280;41776;48.260;8.928;2022-08-03T01:45:29;71068.13;;;-145.69;100.00
1726;BME280;41776;48.260;8.928;2022-08-03T01:47:57;71064.13;;;-145.69;100.00
1726;BME280;41776;48.260;8.928;2022-08-03T01:50:26;71056.16;;;-145.69;100.00
1726;BME280;41776;48.260;8.928;2022-08-03T01:52:55;71064.13;;;-145.69;100.00
1726;BME280;41776;48.260;8.928;2022-08-03T01:55:24;71066.13;;;-145.69;100.00
1726;BME280;41776;48.260;8.928;2022-08-03T01:57:53;71066.13;;;-145.69;100.00
1726;BME280;41776;48.260;8.928;2022-08-03T02:00:21;71072.09;;;-145.69;100.00
1726;BME280;41776;48.260;8.928;2022-08-03T02:02:50;71064.13;;;-145.69;100.00
1726;BME280;41776;48.260;8.928;2022-08-03T02:05:18;71068.13;;;-145.69;100.00
1726;BME280;41776;48.260;8.928;2022-08-03T02:07:45;71076.06;;;-145.69;100.00
1726;BME280;41776;48.260;8.928;2022-08-03T02:10:14;71070.09;;;-145.69;100.00
1726;BME280;41776;48.260;8.928;2022-08-03T02:12:42;71078.06;;;-145.69;100.00
1726;BME280;41776;48.260;8.928;2022-08-03T02:15:10;71062.13;;;-145.69;100.00
1726;BME280;41776;48.260;8.928;2022-08-03T02:17:37;71060.16;;;-145.69;100.00
1726;BME280;41776;48.260;8.928;2022-08-03T02:20:08;71070.09;;;-145.69;100.00
1726;BME280;41776;48.260;8.928;2022-08-03T02:22:38;71070.09;;;-145.69;100.00
1726;BME280;41776;48.260;8.928;2022-08-03T02:25:06;71070.09;;;-145.69;100.00
1726;BME280;41776;48.260;8.928;2022-08-03T02:27:33;71052.19;;;-145.69;100.00
1726;BME280;41776;48.260;8.928;2022-08-03T02:30:04;71052.19;;;-145.69;100.00
1726;BME280;41776;48.260;8.928;2022-08-03T02:32:36;71048.22;;;-145.69;100.00
1726;BME280;41776;48.260;8.928;2022-08-03T02:35:05;71048.22;;;-145.69;100.00
1726;BME280;41776;48.260;8.928;2022-08-03T02:37:36;71058.16;;;-145.69;100.00
1726;BME280;41776;48.260;8.928;2022-08-03T02:40:08;71064.13;;;-145.69;100.00
1726;BME280;41776;48.260;8.928;2022-08-03T02:42:37;71064.13;;;-145.69;100.00
1726;BME280;41776;48.260;8.928;2022-08-03T02:45:06;71068.13;;;-145.69;100.00
1726;BME280;41776;48.260;8.928;2022-08-03T02:47:37;71064.13;;;-145.69;100.00
1726;BME280;41776;48.260;8.928;2022-08-03T02:50:07;71066.13;;;-145.69;100.00
1726;BME280;41776;48.260;8.928;2022-08-03T02:52:36;71070.09;;;-145.69;100.00
1726;BME280;41776;48.260;8.928;2022-08-03T02:55:04;71072.09;;;-145.69;100.00
1726;BME280;41776;48.260;8.928;2022-08-03T02:57:33;71072.09;;;-145.69;100.00
1726;BME280;41776;48.260;8.928;2022-08-03T03:00:01;71066.13;;;-145.69;100.00
1726;BME280;41776;48.260;8.928;2022-08-03T03:02:28;71080.06;;;-145.69;100.00
1726;BME280;41776;48.260;8.928;2022-08-03T03:04:55;71090.00;;;-145.69;100.00
1726;BME280;41776;48.260;8.928;2022-08-03T03:07:23;71103.94;;;-145.69;100.00
1726;BME280;41776;48.260;8.928;2022-08-03T03:09:51;71105.91;;;-145.69;100.00
1726;BME280;41776;48.260;8.928;2022-08-03T03:12:18;71103.94;;;-145.69;100.00
1726;BME280;41776;48.260;8.928;2022-08-03T03:14:46;71101.94;;;-145.69;100.00
1726;BME280;41776;48.260;8.928;2022-08-03T03:17:13;71107.91;;;-145.69;100.00
1726;BME280;41776;48.260;8.928;2022-08-03T03:19:43;71097.97;;;-145.69;100.00
1726;BME280;41776;48.260;8.928;2022-08-03T03:22:11;71088.00;;;-145.69;100.00
1726;BME280;41776;48.260;8.928;2022-08-03T03:24:40;71074.09;;;-145.69;100.00
1726;BME280;41776;48.260;8.928;2022-08-03T03:27:08;71076.06;;;-145.69;100.00
1726;BME280;41776;48.260;8.928;2022-08-03T03:29:35;71088.00;;;-145.69;100.00
1726;BME280;41776;48.260;8.928;2022-08-03T03:32:02;71093.97;;;-145.69;100.00
1726;BME280;41776;48.260;8.928;2022-08-03T03:34:29;71111.88;;;-145.69;100.00
1726;BME280;41776;48.260;8.928;2022-08-03T03:36:56;71121.84;;;-145.69;100.00
1726;BME280;41776;48.260;8.928;2022-08-03T03:39:22;71125.81;;;-145.69;100.00
1726;BME280;41776;48.260;8.928;2022-08-03T03:41:49;71135.75;;;-145.69;100.00
1726;BME280;41776;48.260;8.928;2022-08-03T03:44:17;71133.78;;;-145.69;100.00
1726;BME280;41776;48.260;8.928;2022-08-03T03:46:44;71135.75;;;-145.69;100.00
1726;BME280;41776;48.260;8.928;2022-08-03T03:49:10;71143.72;;;-145.69;100.00
1726;BME280;41776;48.260;8.928;2022-08-03T03:51:37;71147.69;;;-145.69;100.00
1726;BME280;41776;48.260;8.928;2022-08-03T03:54:03;71145.72;;;-145.69;100.00
1726;BME280;41776;48.260;8.928;2022-08-03T03:56:31;71139.75;;;-145.69;100.00
1726;BME280;41776;48.260;8.928;2022-08-03T03:58:58;71133.78;;;-145.69;100.00
1726;BME280;41776;48.260;8.928;2022-08-03T04:01:26;71129.78;;;-145.69;100.00
1726;BME280;41776;48.260;8.928;2022-08-03T04:03:52;71125.81;;;-145.69;100.00
1726;BME280;41776;48.260;8.928;2022-08-03T04:06:19;71103.94;;;-145.69;100.00
1726;BME280;41776;48.260;8.928;2022-08-03T04:09:03;71103.94;;;-145.69;100.00
1726;BME280;41776;48.260;8.928;2022-08-03T04:11:49;71099.94;;;-145.69;100.00
1726;BME280;41776;48.260;8.928;2022-08-03T04:14:18;71107.91;;;-145.69;100.00
1726;BME280;41776;48.260;8.928;2022-08-03T04:16:49;71115.88;;;-145.69;100.00
1726;BME280;41776;48.260;8.928;2022-08-03T04:19:18;71113.88;;;-145.69;100.00
1726;BME280;41776;48.260;8.928;2022-08-03T04:21:49;71109.91;;;-145.69;100.00
1726;BME280;41776;48.260;8.928;2022-08-03T04:24:17;71105.91;;;-145.69;100.00
1726;BME280;41776;48.260;8.928;2022-08-03T04:26:47;71103.94;;;-145.69;100.00
1726;BME280;41776;48.260;8.928;2022-08-03T04:29:15;71103.94;;;-145.69;100.00
1726;BME280;41776;48.260;8.928;2022-08-03T04:31:44;71095.97;;;-145.69;100.00
1726;BME280;41776;48.260;8.928;2022-08-03T04:34:13;71095.97;;;-145.69;100.00
1726;BME280;41776;48.260;8.928;2022-08-03T04:36:47;71099.94;;;-145.69;100.00
1726;BME280;41776;48.260;8.928;2022-08-03T04:39:18;71099.94;;;-145.69;100.00
1726;BME280;41776;48.260;8.928;2022-08-03T04:41:48;71093.97;;;-145.69;100.00
1726;BME280;41776;48.260;8.928;2022-08-03T04:44:16;71105.91;;;-145.69;100.00
1726;BME280;41776;48.260;8.928;2022-08-03T04:46:45;71107.91;;;-145.69;100.00
1726;BME280;41776;48.260;8.928;2022-08-03T04:49:13;71119.84;;;-145.69;100.00
1726;BME280;41776;48.260;8.928;2022-08-03T04:51:40;71115.88;;;-145.69;100.00
1726;BME280;41776;48.260;8.928;2022-08-03T04:54:11;71115.88;;;-145.69;100.00
1726;BME280;41776;48.260;8.928;2022-08-03T04:56:38;71107.91;;;-145.69;100.00
1726;BME280;41776;48.260;8.928;2022-08-03T04:59:05;71095.97;;;-145.69;100.00
1726;BME280;41776;48.260;8.928;2022-08-03T05:01:31;71086.03;;;-145.69;100.00
1726;BME280;41776;48.260;8.928;2022-08-03T05:03:58;71070.09;;;-145.69;100.00
1726;BME280;41776;48.260;8.928;2022-08-03T05:06:26;71072.09;;;-145.69;100.00
1726;BME280;41776;48.260;8.928;2022-08-03T05:08:53;71062.13;;;-145.69;100.00
1726;BME280;41776;48.260;8.928;2022-08-03T05:11:20;71052.19;;;-145.69;100.00
1726;BME280;41776;48.260;8.928;2022-08-03T05:13:46;71040.25;;;-145.69;100.00
1726;BME280;41776;48.260;8.928;2022-08-03T05:16:13;71024.34;;;-145.69;100.00
1726;BME280;41776;48.260;8.928;2022-08-03T05:18:40;71014.38;;;-145.69;100.00
1726;BME280;41776;48.260;8.928;2022-08-03T05:21:07;71002.44;;;-145.69;100.00
1726;BME280;41776;48.260;8.928;2022-08-03T05:23:35;70994.50;;;-145.69;100.00
1726;BME280;41776;48.260;8.928;2022-08-03T05:26:02;70982.56;;;-145.69;100.00
1726;BME280;41776;48.260;8.928;2022-08-03T05:28:28;70988.53;;;-145.69;100.00
1726;BME280;41776;48.260;8.928;2022-08-03T05:30:55;70980.56;;;-145.69;100.00
1726;BME280;41776;48.260;8.928;2022-08-03T05:33:22;70972.59;;;-145.69;100.00
1726;BME280;41776;48.260;8.928;2022-08-03T05:35:48;70960.66;;;-145.69;100.00
1726;BME280;41776;48.260;8.928;2022-08-03T05:38:15;70948.72;;;-145.69;100.00
1726;BME280;41776;48.260;8.928;2022-08-03T05:40:42;70936.78;;;-145.69;100.00
1726;BME280;41776;48.260;8.928;2022-08-03T05:43:09;70924.84;;;-145.69;100.00
1726;BME280;41776;48.260;8.928;2022-08-03T05:45:36;70912.91;;;-145.69;100.00
1726;BME280;41776;48.260;8.928;2022-08-03T05:48:03;70902.97;;;-145.69;100.00
1726;BME280;41776;48.260;8.928;2022-08-03T05:50:29;70881.09;;;-145.69;100.00
1726;BME280;41776;48.260;8.928;2022-08-03T05:52:56;70867.16;;;-145.69;100.00
1726;BME280;41776;48.260;8.928;2022-08-03T05:55:23;70849.25;;;-145.69;100.00
1726;BME280;41776;48.260;8.928;2022-08-03T05:57:50;70835.31;;;-145.69;100.00
1726;BME280;41776;48.260;8.928;2022-08-03T06:00:17;70821.41;;;-145.69;100.00
1726;BME280;41776;48.260;8.928;2022-08-03T06:02:44;70797.53;;;-145.69;100.00
1726;BME280;41776;48.260;8.928;2022-08-03T06:05:10;70781.59;;;-145.69;100.00
1726;BME280;41776;48.260;8.928;2022-08-03T06:07:37;70763.69;;;-145.69;100.00
1726;BME280;41776;48.260;8.928;2022-08-03T06:10:04;70745.78;;;-145.69;100.00
1726;BME280;41776;48.260;8.928;2022-08-03T06:12:31;70737.84;;;-145.69;100.00
1726;BME280;41776;48.260;8.928;2022-08-03T06:15:01;70721.91;;;-145.69;100.00
1726;BME280;41776;48.260;8.928;2022-08-03T06:17:29;70702.03;;;-145.69;100.00
1726;BME280;41776;48.260;8.928;2022-08-03T06:19:55;70678.16;;;-145.69;100.00
1726;BME280;41776;48.260;8.928;2022-08-03T06:22:22;70662.22;;;-145.69;100.00
1726;BME280;41776;48.260;8.928;2022-08-03T06:24:48;70632.38;;;-145.69;100.00
1726;BME280;41776;48.260;8.928;2022-08-03T06:27:15;70606.53;;;-145.69;100.00
1726;BME280;41776;48.260;8.928;2022-08-03T06:29:41;70558.78;;;-145.69;98.95
1726;BME280;41776;48.260;8.928;2022-08-03T06:32:09;70524.97;;;-145.69;93.41
1726;BME280;41776;48.260;8.928;2022-08-03T06:34:35;70511.03;;;-145.69;94.54
1726;BME280;41776;48.260;8.928;2022-08-03T06:37:02;70475.22;;;-145.69;94.12
1726;BME280;41776;48.260;8.928;2022-08-03T06:39:29;70447.38;;;-145.69;92.50
1726;BME280;41776;48.260;8.928;2022-08-03T06:41:55;70427.47;;;-145.69;85.88
1726;BME280;41776;48.260;8.928;2022-08-03T06:44:22;70409.56;;;-145.69;85.62
1726;BME280;41776;48.260;8.928;2022-08-03T06:46:48;70365.81;;;-145.69;85.63
1726;BME280;41776;48.260;8.928;2022-08-03T06:49:17;70365.81;;;-145.69;84.16
1726;BME280;41776;48.260;8.928;2022-08-03T06:51:44;70353.88;;;-145.69;80.81
1726;BME280;41776;48.260;8.928;2022-08-03T06:54:10;70326.03;;;-145.69;79.95
1726;BME280;41776;48.260;8.928;2022-08-03T06:56:37;70304.13;;;-145.69;77.48
1726;BME280;41776;48.260;8.928;2022-08-03T06:59:03;70270.31;;;-145.69;72.67
1726;BME280;41776;48.260;8.928;2022-08-03T07:01:29;70244.47;;;-145.69;73.10
1726;BME280;41776;48.260;8.928;2022-08-03T07:03:56;70220.59;;;-145.69;66.80
1726;BME280;41776;48.260;8.928;2022-08-03T07:06:23;70204.69;;;-145.69;67.52
1726;BME280;41776;48.260;8.928;2022-08-03T07:08:50;70176.81;;;-145.69;66.18
1726;BME280;41776;48.260;8.928;2022-08-03T07:11:16;70168.88;;;-145.69;64.54
1726;BME280;41776;48.260;8.928;2022-08-03T07:13:43;70143.00;;;-145.69;63.09
1726;BME280;41776;48.260;8.928;2022-08-03T07:16:09;70121.13;;;-145.69;62.24
1726;BME280;41776;48.260;8.928;2022-08-03T07:18:37;70117.16;;;-145.69;61.82
1726;BME280;41776;48.260;8.928;2022-08-03T07:21:03;70105.22;;;-145.69;59.92
1726;BME280;41776;48.260;8.928;2022-08-03T07:23:31;70105.22;;;-145.69;57.92
1726;BME280;41776;48.260;8.928;2022-08-03T07:25:57;70093.28;;;-145.69;59.52
1726;BME280;41776;48.260;8.928;2022-08-03T07:28:24;70083.34;;;-145.69;57.97
1726;BME280;41776;48.260;8.928;2022-08-03T07:30:50;70097.25;;;-145.69;58.11
1726;BME280;41776;48.260;8.928;2022-08-03T07:33:17;70059.47;;;-145.69;57.32
1726;BME280;41776;48.260;8.928;2022-08-03T07:35:43;70053.50;;;-145.69;53.20
1726;BME280;41776;48.260;8.928;2022-08-03T07:38:09;70041.56;;;-145.69;55.52
1726;BME280;41776;48.260;8.928;2022-08-03T07:40:37;70031.63;;;-145.69;55.82
1726;BME280;41776;48.260;8.928;2022-08-03T07:43:04;70023.66;;;-145.69;51.24
1726;BME280;41776;48.260;8.928;2022-08-03T07:45:30;70031.63;;;-145.69;52.91
1726;BME280;41776;48.260;8.928;2022-08-03T07:47:57;70035.59;;;-145.69;53.06
1726;BME280;41776;48.260;8.928;2022-08-03T07:50:23;70023.66;;;-145.69;50.64
1726;BME280;41776;48.260;8.928;2022-08-03T07:52:50;70009.72;;;-145.69;52.02
1726;BME280;41776;48.260;8.928;2022-08-03T07:55:19;69993.81;;;-145.69;50.33
1726;BME280;41776;48.260;8.928;2022-08-03T07:57:47;69983.88;;;-145.69;53.18
1726;BME280;41776;48.260;8.928;2022-08-03T08:00:23;69999.78;;;-145.69;51.35
1726;BME280;41776;48.260;8.928;2022-08-03T08:02:50;69989.84;;;-145.69;49.65
1726;BME280;41776;48.260;8.928;2022-08-03T08:05:16;69950.06;;;-145.69;53.11
1726;BME280;41776;48.260;8.928;2022-08-03T08:07:43;69973.94;;;-145.69;50.20
1726;BME280;41776;48.260;8.928;2022-08-03T08:10:09;69954.03;;;-145.69;50.12
1726;BME280;41776;48.260;8.928;2022-08-03T08:12:36;69946.09;;;-145.69;48.43
1726;BME280;41776;48.260;8.928;2022-08-03T08:15:06;69944.09;;;-145.69;47.96
1726;BME280;41776;48.260;8.928;2022-08-03T08:17:40;69958.00;;;-145.69;47.45
1726;BME280;41776;48.260;8.928;2022-08-03T08:20:08;69924.19;;;-145.69;52.46
1726;BME280;41776;48.260;8.928;2022-08-03T08:22:34;69922.22;;;-145.69;50.92
1726;BME280;41776;48.260;8.928;2022-08-03T08:25:01;69938.13;;;-145.69;48.26
1726;BME280;41776;48.260;8.928;2022-08-03T08:27:27;69904.31;;;-145.69;49.89
1726;BME280;41776;48.260;8.928;2022-08-03T08:29:54;69912.25;;;-145.69;46.94
1726;BME280;41776;48.260;8.928;2022-08-03T08:32:22;69906.28;;;-145.69;47.98
1726;BME280;41776;48.260;8.928;2022-08-03T08:34:48;69902.31;;;-145.69;47.41
1726;BME280;41776;48.260;8.928;2022-08-03T08:37:15;69882.44;;;-145.69;47.54
1726;BME280;41776;48.260;8.928;2022-08-03T08:39:41;69902.31;;;-145.69;45.96
1726;BME280;41776;48.260;8.928;2022-08-03T08:42:08;69878.44;;;-145.69;48.21
1726;BME280;41776;48.260;8.928;2022-08-03T08:44:35;69878.44;;;-145.69;45.37
1726;BME280;41776;48.260;8.928;2022-08-03T08:47:02;69882.44;;;-145.69;47.72
1726;BME280;41776;48.260;8.928;2022-08-03T08:49:31;69848.63;;;-145.69;47.09
1726;BME280;41776;48.260;8.928;2022-08-03T08:51:58;69832.69;;;-145.69;46.10
1726;BME280;41776;48.260;8.928;2022-08-03T08:54:25;69862.53;;;-145.69;45.81
1726;BME280;41776;48.260;8.928;2022-08-03T08:56:52;69860.53;;;-145.69;45.04
1726;BME280;41776;48.260;8.928;2022-08-03T08:59:23;69850.59;;;-145.69;46.39
1726;BME280;41776;48.260;8.928;2022-08-03T09:01:50;69810.81;;;-145.69;48.29
1726;BME280;41776;48.260;8.928;2022-08-03T09:04:21;69820.75;;;-145.69;44.53
1726;BME280;41776;48.260;8.928;2022-08-03T09:06:49;69800.88;;;-145.69;45.41
1726;BME280;41776;48.260;8.928;2022-08-03T09:09:16;69822.75;;;-145.69;44.55
1726;BME280;41776;48.260;8.928;2022-08-03T09:11:42;69826.72;;;-145.69;43.89
1726;BME280;41776;48.260;8.928;2022-08-03T09:14:09;69806.84;;;-145.69;49.71
1726;BME280;41776;48.260;8.928;2022-08-03T09:16:36;69810.81;;;-145.69;46.17
1726;BME280;41776;48.260;8.928;2022-08-03T09:19:11;69796.91;;;-145.69;44.42
1726;BME280;41776;48.260;8.928;2022-08-03T09:21:38;69792.91;;;-145.69;43.35
1726;BME280;41776;48.260;8.928;2022-08-03T09:24:06;69822.75;;;-145.69;42.64
1726;BME280;41776;48.260;8.928;2022-08-03T09:26:34;69806.84;;;-145.69;42.40
1726;BME280;41776;48.260;8.928;2022-08-03T09:29:03;69840.66;;;-145.69;43.43
1726;BME280;41776;48.260;8.928;2022-08-03T09:31:31;69804.84;;;-145.69;48.08
1726;BME280;41776;48.260;8.928;2022-08-03T09:34:02;69812.81;;;-145.69;42.78
1726;BME280;41776;48.260;8.928;2022-08-03T09:36:39;69826.72;;;-145.69;41.28
1726;BME280;41776;48.260;8.928;2022-08-03T09:39:09;69790.94;;;-145.69;45.52
1726;BME280;41776;48.260;8.928;2022-08-03T09:41:37;69798.88;;;-145.69;42.03
1726;BME280;41776;48.260;8.928;2022-08-03T09:44:04;69802.88;;;-145.69;42.56
1726;BME280;41776;48.260;8.928;2022-08-03T09:46:30;69782.97;;;-145.69;41.99
1726;BME280;41776;48.260;8.928;2022-08-03T09:49:10;69802.88;;;-145.69;40.34
1726;BME280;41776;48.260;8.928;2022-08-03T09:51:37;69796.91;;;-145.69;41.90
1726;BME280;41776;48.260;8.928;2022-08-03T09:54:04;69798.88;;;-145.69;41.85
1726;BME280;41776;48.260;8.928;2022-08-03T09:56:43;69779.00;;;-145.69;41.26
1726;BME280;41776;48.260;8.928;2022-08-03T09:59:11;69794.91;;;-145.69;40.93
1726;BME280;41776;48.260;8.928;2022-08-03T10:01:39;69786.94;;;-145.69;41.90
1726;BME280;41776;48.260;8.928;2022-08-03T10:04:11;69820.75;;;-145.69;41.77
1726;BME280;41776;48.260;8.928;2022-08-03T10:06:39;69826.72;;;-145.69;40.58
1726;BME280;41776;48.260;8.928;2022-08-03T10:09:07;69822.75;;;-145.69;40.35
1726;BME280;41776;48.260;8.928;2022-08-03T10:11:34;69800.88;;;-145.69;44.35
1726;BME280;41776;48.260;8.928;2022-08-03T10:14:03;69804.84;;;-145.69;41.21
1726;BME280;41776;48.260;8.928;2022-08-03T10:16:34;69769.06;;;-145.69;42.36
1726;BME280;41776;48.260;8.928;2022-08-03T10:19:01;69773.03;;;-145.69;41.08
1726;BME280;41776;48.260;8.928;2022-08-03T10:21:31;69747.16;;;-145.69;41.35
1726;BME280;41776;48.260;8.928;2022-08-03T10:24:01;69731.25;;;-145.69;41.96
1726;BME280;41776;48.260;8.928;2022-08-03T10:26:30;69709.38;;;-145.69;40.15
1726;BME280;41776;48.260;8.928;2022-08-03T10:28:59;69699.44;;;-145.69;40.39
1726;BME280;41776;48.260;8.928;2022-08-03T10:31:33;69711.38;;;-145.69;39.34
1726;BME280;41776;48.260;8.928;2022-08-03T10:34:01;69711.38;;;-145.69;40.11
1726;BME280;41776;48.260;8.928;2022-08-03T10:36:32;69719.31;;;-145.69;41.95
1726;BME280;41776;48.260;8.928;2022-08-03T10:39:01;69705.41;;;-145.69;38.55
1726;BME280;41776;48.260;8.928;2022-08-03T10:41:31;69687.50;;;-145.69;39.81
1726;BME280;41776;48.260;8.928;2022-08-03T10:44:03;69671.59;;;-145.69;40.05
1726;BME280;41776;48.260;8.928;2022-08-03T10:46:32;69673.56;;;-145.69;38.75
1726;BME280;41776;48.260;8.928;2022-08-03T10:48:59;69679.53;;;-145.69;38.13
1726;BME280;41776;48.260;8.928;2022-08-03T10:51:26;69659.66;;;-145.69;37.68
1726;BME280;41776;48.260;8.928;2022-08-03T10:53:56;69677.56;;;-145.69;38.83
1726;BME280;41776;48.260;8.928;2022-08-03T10:56:39;69679.53;;;-145.69;39.03
1726;BME280;41776;48.260;8.928;2022-08-03T10:59:57;69683.53;;;-145.69;37.27
1726;BME280;41776;48.260;8.928;2022-08-03T11:05:36;69629.81;;;-145.69;38.44
1726;BME280;41776;48.260;8.928;2022-08-03T11:08:26;69639.75;;;-145.69;37.70
1726;BME280;41776;48.260;8.928;2022-08-03T11:10:54;69631.81;;;-145.69;38.37
1726;BME280;41776;48.260;8.928;2022-08-03T11:13:23;69617.88;;;-145.69;38.83
1726;BME280;41776;48.260;8.928;2022-08-03T11:15:52;69611.91;;;-145.69;39.45
1726;BME280;41776;48.260;8.928;2022-08-03T11:18:19;69588.06;;;-145.69;40.54
1726;BME280;41776;48.260;8.928;2022-08-03T11:20:49;69580.09;;;-145.69;37.12
1726;BME280;41776;48.260;8.928;2022-08-03T11:23:18;69596.00;;;-145.69;36.65
1726;BME280;41776;48.260;8.928;2022-08-03T11:26:07;69635.78;;;-145.69;39.44
1726;BME280;41776;48.260;8.928;2022-08-03T11:28:34;69649.72;;;-145.69;38.44
1726;BME280;41776;48.260;8.928;2022-08-03T11:31:43;69603.97;;;-145.69;39.26
1726;BME280;41776;48.260;8.928;2022-08-03T11:34:15;69586.06;;;-145.69;36.64
1726;BME280;41776;48.260;8.928;2022-08-03T11:37:21;69582.09;;;-145.69;36.53
1726;BME280;41776;48.260;8.928;2022-08-03T11:39:52;69568.16;;;-145.69;35.91
1726;BME280;41776;48.260;8.928;2022-08-03T11:42:41;69554.25;;;-145.69;36.69
1726;BME280;41776;48.260;8.928;2022-08-03T11:45:12;69516.44;;;-145.69;38.28
1726;BME280;41776;48.260;8.928;2022-08-03T11:47:40;69488.59;;;-145.69;38.52
1726;BME280;41776;48.260;8.928;2022-08-03T11:50:08;69450.81;;;-145.69;35.70
1726;BME280;41776;48.260;8.928;2022-08-03T11:52:40;69450.81;;;-145.69;36.56
1726;BME280;41776;48.260;8.928;2022-08-03T11:55:14;69446.84;;;-145.69;36.90
1726;BME280;41776;48.260;8.928;2022-08-03T11:57:43;69442.84;;;-145.69;35.13
1726;BME280;41776;48.260;8.928;2022-08-03T12:00:35;69440.88;;;-145.69;37.53
1726;BME280;41776;48.260;8.928;2022-08-03T12:03:04;69403.09;;;-145.69;35.16
1726;BME280;41776;48.260;8.928;2022-08-03T12:05:44;69397.13;;;-145.69;35.48
1726;BME280;41776;48.260;8.928;2022-08-03T12:08:14;69440.88;;;-145.69;33.08
1726;BME280;41776;48.260;8.928;2022-08-03T12:10:46;69476.66;;;-145.69;34.86
1726;BME280;41776;48.260;8.928;2022-08-03T12:13:13;69482.63;;;-145.69;33.79
1726;BME280;41776;48.260;8.928;2022-08-03T12:15:40;69520.44;;;-145.69;34.92
1726;BME280;41776;48.260;8.928;2022-08-03T12:18:15;69474.69;;;-145.69;37.89
1726;BME280;41776;48.260;8.928;2022-08-03T12:20:43;69450.81;;;-145.69;35.56
1726;BME280;41776;48.260;8.928;2022-08-03T12:23:10;69428.94;;;-145.69;36.91
1726;BME280;41776;48.260;8.928;2022-08-03T12:25:40;69397.13;;;-145.69;34.16
1726;BME280;41776;48.260;8.928;2022-08-03T12:28:13;69405.06;;;-145.69;35.21
1726;BME280;41776;48.260;8.928;2022-08-03T12:30:44;69345.41;;;-145.69;35.78
1726;BME280;41776;48.260;8.928;2022-08-03T12:33:20;69321.53;;;-145.69;34.52
1726;BME280;41776;48.260;8.928;2022-08-03T12:35:48;69367.28;;;-145.69;34.37
1726;BME280;41776;48.260;8.928;2022-08-03T12:38:20;69311.59;;;-145.69;34.65
1726;BME280;41776;48.260;8.928;2022-08-03T12:41:00;69273.81;;;-145.69;34.02
1726;BME280;41776;48.260;8.928;2022-08-03T12:43:26;69249.94;;;-145.69;33.32
1726;BME280;41776;48.260;8.928;2022-08-03T12:46:07;69253.91;;;-145.69;35.03
1726;BME280;41776;48.260;8.928;2022-08-03T12:49:07;69243.97;;;-145.69;33.25
1726;BME280;41776;48.260;8.928;2022-08-03T12:51:36;69216.13;;;-145.69;33.48
1726;BME280;41776;48.260;8.928;2022-08-03T12:54:04;69287.72;;;-145.69;31.88
1726;BME280;41776;48.260;8.928;2022-08-03T12:56:30;69236.03;;;-145.69;32.89
1726;BME280;41776;48.260;8.928;2022-08-03T12:58:57;69216.13;;;-145.69;34.68